createdAt,value
2023-06-11T00:01:53.555Z,18.06
2023-06-11T00:04:55.678Z,17.99
2023-06-11T00:08:02.142Z,17.97
2023-06-11T00:11:04.082Z,17.92
2023-06-11T00:14:06.307Z,17.88
2023-06-11T00:17:08.183Z,17.84
2023-06-11T00:20:11.064Z,17.79
2023-06-11T00:23:13.499Z,17.75
2023-06-11T00:26:15.345Z,17.72
2023-06-11T00:29:18.192Z,17.69
2023-06-11T00:32:21.109Z,17.66
2023-06-11T00:35:22.886Z,17.65
2023-06-11T00:38:25.295Z,17.61
2023-06-11T00:41:30.752Z,17.57
2023-06-11T00:44:32.946Z,17.54
2023-06-11T00:47:37.814Z,17.50
2023-06-11T00:50:46.407Z,17.45
2023-06-11T00:53:48.526Z,17.40
2023-06-11T00:56:50.305Z,17.35
2023-06-11T00:59:54.631Z,17.28
2023-06-11T01:03:08.914Z,17.23
2023-06-11T01:06:14.273Z,17.16
2023-06-11T01:09:19.047Z,17.12
2023-06-11T01:12:21.847Z,17.09
2023-06-11T01:15:23.630Z,17.06
2023-06-11T01:18:29.957Z,17.04
2023-06-11T01:21:46.337Z,17.03
2023-06-11T01:25:15.809Z,17.01
2023-06-11T01:28:23.255Z,16.96
2023-06-11T01:31:30.936Z,16.95
2023-06-11T01:34:33.834Z,16.94
2023-06-11T01:37:36.330Z,16.91
2023-06-11T01:40:40.686Z,16.90
2023-06-11T01:43:44.979Z,16.85
2023-06-11T01:46:46.960Z,16.82
2023-06-11T01:49:49.030Z,16.77
2023-06-11T01:52:51.204Z,16.71
2023-06-11T01:55:53.399Z,16.70
2023-06-11T01:58:55.239Z,16.70
2023-06-11T02:01:57.794Z,16.67
2023-06-11T02:04:59.699Z,16.63
2023-06-11T02:08:01.620Z,16.62
2023-06-11T02:11:04.898Z,16.60
2023-06-11T02:14:07.139Z,16.58
2023-06-11T02:17:10.927Z,16.54
2023-06-11T02:20:13.328Z,16.51
2023-06-11T02:23:15.445Z,16.49
2023-06-11T02:26:17.300Z,16.42
2023-06-11T02:29:19.038Z,16.36
2023-06-11T02:32:20.934Z,16.33
2023-06-11T02:35:24.054Z,16.29
2023-06-11T02:38:25.795Z,16.29
2023-06-11T02:41:28.064Z,16.26
2023-06-11T02:44:29.970Z,16.24
2023-06-11T02:47:31.857Z,16.19
2023-06-11T02:50:33.690Z,16.17
2023-06-11T02:53:35.557Z,16.13
2023-06-11T02:56:37.928Z,16.07
2023-06-11T02:59:39.743Z,16.05
2023-06-11T03:02:41.599Z,16.01
2023-06-11T03:05:43.646Z,16.00
2023-06-11T03:08:49.573Z,15.96
2023-06-11T03:11:52.671Z,15.98
2023-06-11T03:14:54.501Z,16.02
2023-06-11T03:17:56.842Z,16.05
2023-06-11T03:20:59.430Z,16.09
2023-06-11T03:24:01.324Z,16.07
2023-06-11T03:27:04.686Z,16.07
2023-06-11T03:30:07.907Z,16.05
2023-06-11T03:33:12.350Z,16.04
2023-06-11T03:36:14.576Z,16.04
2023-06-11T03:39:18.109Z,16.05
2023-06-11T03:42:22.605Z,16.07
2023-06-11T03:45:24.758Z,16.07
2023-06-11T03:48:26.710Z,16.04
2023-06-11T03:51:28.655Z,16.09
2023-06-11T03:54:32.698Z,16.11
2023-06-11T03:57:34.722Z,16.10
2023-06-11T04:00:36.665Z,16.10
2023-06-11T04:03:38.622Z,16.10
2023-06-11T04:06:41.637Z,16.13
2023-06-11T04:09:43.949Z,16.18
2023-06-11T04:12:48.786Z,16.21
2023-06-11T04:15:51.012Z,16.20
2023-06-11T04:18:53.418Z,16.24
2023-06-11T04:21:55.562Z,16.27
2023-06-11T04:24:58.860Z,16.31
2023-06-11T04:28:01.018Z,16.36
2023-06-11T04:31:04.361Z,16.38
2023-06-11T04:34:12.022Z,16.43
2023-06-11T04:37:17.343Z,16.45
2023-06-11T04:40:20.770Z,16.49
2023-06-11T04:43:24.862Z,16.50
2023-06-11T04:46:28.190Z,16.52
2023-06-11T04:49:30.337Z,16.57
2023-06-11T04:52:33.372Z,16.61
2023-06-11T04:55:39.932Z,16.65
2023-06-11T04:58:42.485Z,16.70
2023-06-11T05:01:48.287Z,16.73
2023-06-11T05:04:55.128Z,16.74
2023-06-11T05:07:57.096Z,16.79
2023-06-11T05:11:01.677Z,16.84
2023-06-11T05:14:06.854Z,16.87
2023-06-11T05:17:08.674Z,16.92
2023-06-11T05:20:11.887Z,16.98
2023-06-11T05:23:14.283Z,17.06
2023-06-11T05:26:16.376Z,17.13
2023-06-11T05:29:21.638Z,17.18
2023-06-11T05:32:24.019Z,17.25
2023-06-11T05:35:26.813Z,17.31
2023-06-11T05:38:30.085Z,17.37
2023-06-11T05:41:33.143Z,17.41
2023-06-11T05:44:37.438Z,17.46
2023-06-11T05:47:39.602Z,17.55
2023-06-11T05:50:41.660Z,17.57
2023-06-11T05:53:43.898Z,17.61
2023-06-11T05:56:46.930Z,17.67
2023-06-11T05:59:50.386Z,17.72
2023-06-11T06:02:54.214Z,17.79
2023-06-11T06:06:02.587Z,17.87
2023-06-11T06:09:04.553Z,17.96
2023-06-11T06:12:09.024Z,17.97
2023-06-11T06:15:12.014Z,18.04
2023-06-11T06:18:19.382Z,18.11
2023-06-11T06:21:21.425Z,18.15
2023-06-11T06:24:23.363Z,18.27
2023-06-11T06:27:25.495Z,18.34
2023-06-11T06:30:27.349Z,18.39
2023-06-11T06:33:31.669Z,18.48
2023-06-11T06:36:36.766Z,18.57
2023-06-11T06:39:38.637Z,18.64
2023-06-11T06:42:40.525Z,18.70
2023-06-11T06:45:44.312Z,18.78
2023-06-11T06:48:56.808Z,18.87
2023-06-11T06:51:58.525Z,19.00
2023-06-11T06:55:01.184Z,19.07
2023-06-11T06:58:03.056Z,19.13
2023-06-11T07:01:05.638Z,19.17
2023-06-11T07:04:07.419Z,19.22
2023-06-11T07:07:09.059Z,19.25
2023-06-11T07:10:11.946Z,19.31
2023-06-11T07:13:14.284Z,19.37
2023-06-11T07:16:16.463Z,19.46
2023-06-11T07:19:27.905Z,19.59
2023-06-11T07:22:29.753Z,19.71
2023-06-11T07:25:32.402Z,19.80
2023-06-11T07:28:36.517Z,19.84
2023-06-11T07:31:38.433Z,19.90
2023-06-11T07:34:41.268Z,19.98
2023-06-11T07:37:43.271Z,20.07
2023-06-11T07:40:46.456Z,20.14
2023-06-11T07:43:49.065Z,20.23
2023-06-11T07:46:54.420Z,20.28
2023-06-11T07:49:56.970Z,20.33
2023-06-11T07:53:01.862Z,20.40
2023-06-11T07:56:04.810Z,20.47
2023-06-11T07:59:08.038Z,20.59
2023-06-11T08:02:10.225Z,20.68
2023-06-11T08:05:12.891Z,20.78
2023-06-11T08:08:14.989Z,20.97
2023-06-11T08:11:16.723Z,21.02
2023-06-11T08:14:20.369Z,21.10
2023-06-11T08:17:22.079Z,21.19
2023-06-11T08:20:24.224Z,21.27
2023-06-11T08:23:26.281Z,21.40
2023-06-11T08:26:30.131Z,21.53
2023-06-11T08:29:32.466Z,21.60
2023-06-11T08:32:34.269Z,21.67
2023-06-11T08:35:36.202Z,21.77
2023-06-11T08:38:39.173Z,21.91
2023-06-11T08:41:41.437Z,21.98
2023-06-11T08:44:46.591Z,22.05
2023-06-11T08:47:53.148Z,22.12
2023-06-11T08:50:56.085Z,22.26
2023-06-11T08:53:58.205Z,22.40
2023-06-11T08:57:01.040Z,22.51
2023-06-11T09:00:03.120Z,22.62
2023-06-11T09:03:05.654Z,22.64
2023-06-11T09:06:07.600Z,22.78
2023-06-11T09:09:13.241Z,22.89
2023-06-11T09:12:15.440Z,23.02
2023-06-11T09:15:18.825Z,23.16
2023-06-11T09:18:22.761Z,23.24
2023-06-11T09:21:26.188Z,23.39
2023-06-11T09:24:28.053Z,23.50
2023-06-11T09:27:29.738Z,23.64
2023-06-11T09:30:31.824Z,23.69
2023-06-11T09:33:34.235Z,23.79
2023-06-11T09:36:36.882Z,23.85
2023-06-11T09:39:41.057Z,23.98
2023-06-11T09:42:48.275Z,24.09
2023-06-11T09:45:54.028Z,24.20
2023-06-11T09:48:56.315Z,24.40
2023-06-11T09:51:59.145Z,24.42
2023-06-11T09:55:03.665Z,24.55
2023-06-11T09:58:06.206Z,24.65
2023-06-11T10:01:08.842Z,24.69
2023-06-11T10:04:11.343Z,24.82
2023-06-11T10:07:14.032Z,24.88
2023-06-11T10:10:21.011Z,24.97
2023-06-11T10:13:36.901Z,25.05
2023-06-11T10:16:39.052Z,25.20
2023-06-11T10:19:41.502Z,25.30
2023-06-11T10:22:43.560Z,25.39
2023-06-11T10:25:54.010Z,25.48
2023-06-11T10:28:56.352Z,25.57
2023-06-11T10:31:58.198Z,25.67
2023-06-11T10:35:05.924Z,25.68
2023-06-11T10:38:14.101Z,25.76
2023-06-11T10:41:16.569Z,25.80
2023-06-11T10:44:25.181Z,25.90
2023-06-11T10:47:30.462Z,26.03
2023-06-11T10:50:34.979Z,26.12
2023-06-11T10:53:42.246Z,26.21
2023-06-11T10:56:46.638Z,26.28
2023-06-11T10:59:51.798Z,26.36
2023-06-11T11:02:55.823Z,26.43
2023-06-11T11:06:00.196Z,26.52
2023-06-11T11:09:04.674Z,26.59
2023-06-11T11:12:08.347Z,26.68
2023-06-11T11:15:12.176Z,26.74
2023-06-11T11:18:14.473Z,26.82
2023-06-11T11:21:16.654Z,26.90
2023-06-11T11:24:20.418Z,27.03
2023-06-11T11:27:28.593Z,27.18
2023-06-11T11:30:31.796Z,27.34
2023-06-11T11:33:38.603Z,27.46
2023-06-11T11:36:40.876Z,27.53
2023-06-11T11:39:42.783Z,27.68
2023-06-11T11:42:52.341Z,27.81
2023-06-11T11:45:54.522Z,27.97
2023-06-11T11:48:56.953Z,28.08
2023-06-11T11:52:01.933Z,28.22
2023-06-11T11:55:05.677Z,28.42
2023-06-11T11:58:16.358Z,28.64
2023-06-11T12:01:31.618Z,28.77
2023-06-11T12:04:47.540Z,28.96
2023-06-11T12:07:53.675Z,29.16
2023-06-11T12:10:56.106Z,29.32
2023-06-11T12:13:58.104Z,29.50
2023-06-11T12:17:00.413Z,29.68
2023-06-11T12:20:02.256Z,29.82
2023-06-11T12:23:04.451Z,30.00
2023-06-11T12:26:06.845Z,30.29
2023-06-11T12:29:08.761Z,30.59
2023-06-11T12:32:16.807Z,30.75
2023-06-11T12:35:18.943Z,30.84
2023-06-11T12:38:21.603Z,30.96
2023-06-11T12:41:23.422Z,31.07
2023-06-11T12:44:25.610Z,31.12
2023-06-11T12:47:27.853Z,31.28
2023-06-11T12:50:29.653Z,31.40
2023-06-11T12:53:31.665Z,31.50
2023-06-11T12:56:33.405Z,31.58
2023-06-11T12:59:35.297Z,31.63
2023-06-11T13:02:43.380Z,31.75
2023-06-11T13:05:45.632Z,31.81
2023-06-11T13:08:47.632Z,31.85
2023-06-11T13:11:50.362Z,31.91
2023-06-11T13:14:52.942Z,31.99
2023-06-11T13:17:54.786Z,32.05
2023-06-11T13:21:00.233Z,32.16
2023-06-11T13:24:03.303Z,32.29
2023-06-11T13:27:05.871Z,32.43
2023-06-11T13:30:11.453Z,32.49
2023-06-11T13:33:13.644Z,32.53
2023-06-11T13:36:17.134Z,32.60
2023-06-11T13:39:18.838Z,32.65
2023-06-11T13:42:20.604Z,32.67
2023-06-11T13:45:22.472Z,32.74
2023-06-11T13:48:24.245Z,32.79
2023-06-11T13:51:28.852Z,32.91
2023-06-11T13:54:33.234Z,32.96
2023-06-11T13:57:35.082Z,33.11
2023-06-11T14:00:37.045Z,33.23
2023-06-11T14:03:39.038Z,33.42
2023-06-11T14:06:40.864Z,33.60
2023-06-11T14:09:43.053Z,33.62
2023-06-11T14:12:44.913Z,33.66
2023-06-11T14:15:46.942Z,33.80
2023-06-11T14:18:49.006Z,33.86
2023-06-11T14:21:50.948Z,33.91
2023-06-11T14:24:52.944Z,33.82
2023-06-11T14:27:56.298Z,33.88
2023-06-11T14:31:03.470Z,33.90
2023-06-11T14:34:05.597Z,33.94
2023-06-11T14:37:08.637Z,33.94
2023-06-11T14:40:11.018Z,34.06
2023-06-11T14:43:13.163Z,34.21
2023-06-11T14:46:15.267Z,34.35
2023-06-11T14:49:21.077Z,34.49
2023-06-11T14:52:23.491Z,34.47
2023-06-11T14:55:25.563Z,34.48
2023-06-11T14:58:27.420Z,34.37
2023-06-11T15:01:29.472Z,34.40
2023-06-11T15:04:31.371Z,34.48
2023-06-11T15:07:35.806Z,34.44
2023-06-11T15:10:40.337Z,34.40
2023-06-11T15:13:42.424Z,34.45
2023-06-11T15:16:45.933Z,34.53
2023-06-11T15:19:48.066Z,34.49
2023-06-11T15:22:49.976Z,34.42
2023-06-11T15:25:52.678Z,34.51
2023-06-11T15:28:54.651Z,34.55
2023-06-11T15:31:59.707Z,34.49
2023-06-11T15:35:01.884Z,34.53
2023-06-11T15:38:04.701Z,34.55
2023-06-11T15:41:06.672Z,34.53
2023-06-11T15:44:08.729Z,34.67
2023-06-11T15:47:10.858Z,34.71
2023-06-11T15:50:13.074Z,34.93
2023-06-11T15:53:15.787Z,35.34
2023-06-11T15:56:18.989Z,35.83
2023-06-11T15:59:20.811Z,36.44
2023-06-11T16:02:22.582Z,36.85
2023-06-11T16:05:24.634Z,37.30
2023-06-11T16:08:26.604Z,37.92
2023-06-11T16:11:28.515Z,38.42
2023-06-11T16:14:30.416Z,38.73
2023-06-11T16:17:32.443Z,39.12
2023-06-11T16:20:34.395Z,39.35
2023-06-11T16:23:37.218Z,39.61
2023-06-11T16:26:39.087Z,39.93
2023-06-11T16:29:40.787Z,40.14
2023-06-11T16:32:43.488Z,40.35
2023-06-11T16:35:45.401Z,40.47
2023-06-11T16:38:47.237Z,40.57
2023-06-11T16:41:49.291Z,40.83
2023-06-11T16:44:51.513Z,41.00
2023-06-11T16:47:53.786Z,41.09
2023-06-11T16:50:55.732Z,41.22
2023-06-11T16:53:57.798Z,41.29
2023-06-11T16:57:00.830Z,41.40
2023-06-11T17:00:06.028Z,41.32
2023-06-11T17:03:09.139Z,41.23
2023-06-11T17:06:11.297Z,41.08
2023-06-11T17:09:13.267Z,40.83
2023-06-11T17:12:15.537Z,40.44
2023-06-11T17:15:17.686Z,39.86
2023-06-11T17:18:19.316Z,39.21
2023-06-11T17:21:21.213Z,38.53
2023-06-11T17:24:23.373Z,37.89
2023-06-11T17:27:25.520Z,37.29
2023-06-11T17:30:27.709Z,36.81
2023-06-11T17:33:29.437Z,36.28
2023-06-11T17:36:31.234Z,35.77
2023-06-11T17:39:33.399Z,35.38
2023-06-11T17:42:35.327Z,34.94
2023-06-11T17:45:37.284Z,34.53
2023-06-11T17:48:39.179Z,34.22
2023-06-11T17:51:42.730Z,33.97
2023-06-11T17:54:45.048Z,33.69
2023-06-11T17:57:47.811Z,33.38
2023-06-11T18:00:49.653Z,33.14
2023-06-11T18:03:51.594Z,32.92
2023-06-11T18:06:53.720Z,32.74
2023-06-11T18:09:55.773Z,32.51
2023-06-11T18:12:57.726Z,32.28
2023-06-11T18:15:59.515Z,32.25
2023-06-11T18:19:01.527Z,32.65
2023-06-11T18:22:03.719Z,33.50
2023-06-11T18:25:07.057Z,33.32
2023-06-11T18:28:10.337Z,33.07
2023-06-11T18:31:13.313Z,33.41
2023-06-11T18:34:17.178Z,35.28
2023-06-11T18:37:19.025Z,36.47
2023-06-11T18:40:21.033Z,36.96
2023-06-11T18:43:22.826Z,37.05
2023-06-11T18:46:25.978Z,36.84
2023-06-11T18:49:29.808Z,36.19
2023-06-11T18:52:32.598Z,35.76
2023-06-11T18:55:34.688Z,35.20
2023-06-11T18:58:37.585Z,34.63
2023-06-11T19:01:39.611Z,34.00
2023-06-11T19:04:42.444Z,33.13
2023-06-11T19:07:44.859Z,31.95
2023-06-11T19:10:50.221Z,30.53
2023-06-11T19:13:52.012Z,28.98
2023-06-11T19:16:53.950Z,27.94
2023-06-11T19:19:55.923Z,27.09
2023-06-11T19:22:57.639Z,26.39
2023-06-11T19:25:59.602Z,25.85
2023-06-11T19:29:01.498Z,25.43
2023-06-11T19:32:04.253Z,25.04
2023-06-11T19:35:06.864Z,24.72
2023-06-11T19:38:08.875Z,24.42
2023-06-11T19:41:13.039Z,24.19
2023-06-11T19:44:16.630Z,23.99
2023-06-11T19:47:18.626Z,23.82
2023-06-11T19:50:25.645Z,23.64
2023-06-11T19:53:27.526Z,23.47
2023-06-11T19:56:29.411Z,23.33
2023-06-11T19:59:31.909Z,23.21
2023-06-11T20:02:34.188Z,23.05
2023-06-11T20:05:36.312Z,22.89
2023-06-11T20:08:38.426Z,22.74
2023-06-11T20:11:40.351Z,22.62
2023-06-11T20:14:42.228Z,22.49
2023-06-11T20:17:44.150Z,22.36
2023-06-11T20:20:48.832Z,22.25
2023-06-11T20:23:50.721Z,22.14
2023-06-11T20:26:54.029Z,22.02
2023-06-11T20:29:55.872Z,21.92
2023-06-11T20:32:57.768Z,21.85
2023-06-11T20:35:59.515Z,21.76
2023-06-11T20:39:02.908Z,21.68
2023-06-11T20:42:05.223Z,21.57
2023-06-11T20:45:10.025Z,21.45
2023-06-11T20:48:11.759Z,21.32
2023-06-11T20:51:13.369Z,21.18
2023-06-11T20:54:15.306Z,21.04
2023-06-11T20:57:16.904Z,20.93
2023-06-11T21:00:19.080Z,20.80
2023-06-11T21:03:20.909Z,20.69
2023-06-11T21:06:22.959Z,20.60
2023-06-11T21:09:24.600Z,20.50
2023-06-11T21:12:28.791Z,20.36
2023-06-11T21:15:30.842Z,20.25
2023-06-11T21:18:32.603Z,20.11
2023-06-11T21:21:34.394Z,20.03
2023-06-11T21:24:36.509Z,19.94
2023-06-11T21:27:39.534Z,19.90
2023-06-11T21:30:41.645Z,19.81
2023-06-11T21:33:43.366Z,19.72
2023-06-11T21:36:45.496Z,19.64
2023-06-11T21:39:47.237Z,19.55
2023-06-11T21:42:49.084Z,19.49
2023-06-11T21:45:50.987Z,19.40
2023-06-11T21:48:52.608Z,19.34
2023-06-11T21:51:54.633Z,19.31
2023-06-11T21:54:58.459Z,19.28
2023-06-11T21:58:04.345Z,19.24
2023-06-11T22:01:06.097Z,19.15
2023-06-11T22:04:08.134Z,19.07
2023-06-11T22:07:10.439Z,18.99
2023-06-11T22:10:12.798Z,18.92
2023-06-11T22:13:15.537Z,18.88
2023-06-11T22:16:17.554Z,18.84
2023-06-11T22:19:19.976Z,18.82
2023-06-11T22:22:22.133Z,18.77
2023-06-11T22:25:25.626Z,18.73
2023-06-11T22:28:29.087Z,18.68
2023-06-11T22:31:31.037Z,18.64
2023-06-11T22:34:32.961Z,18.58
2023-06-11T22:37:37.677Z,18.55
2023-06-11T22:40:39.575Z,18.50
2023-06-11T22:43:41.324Z,18.47
2023-06-11T22:46:43.213Z,18.45
2023-06-11T22:49:45.085Z,18.42
2023-06-11T22:52:50.595Z,18.37
2023-06-11T22:55:52.282Z,18.34
2023-06-11T22:58:54.067Z,18.32
2023-06-11T23:01:56.206Z,18.26
2023-06-11T23:04:57.938Z,18.24
2023-06-11T23:08:01.115Z,18.18
2023-06-11T23:11:02.852Z,18.15
2023-06-11T23:14:04.483Z,18.10
2023-06-11T23:17:10.542Z,18.03
2023-06-11T23:20:13.073Z,17.99
2023-06-11T23:23:16.873Z,17.97
2023-06-11T23:26:18.857Z,17.93
2023-06-11T23:29:20.554Z,17.95
2023-06-11T23:32:22.311Z,17.96
2023-06-11T23:35:24.149Z,17.97
2023-06-11T23:38:26.903Z,18.01
2023-06-11T23:41:28.630Z,17.95
2023-06-11T23:44:30.466Z,17.85
2023-06-11T23:47:32.570Z,17.80
2023-06-11T23:50:34.589Z,17.72
2023-06-11T23:53:37.091Z,17.66
2023-06-11T23:56:38.901Z,17.60
2023-06-11T23:59:41.043Z,17.53
